ΕΜΥ, Εθνική Μετεωρολογική Υπηρεσία - Δελτία Καιρού, Προγνώσεις

ΑΕΡΟΝΑΥΤΙΛΙΑ

GREEK AIRPORTS CODES

LGMK 071750Z 13005KT 9999 FEW020 14/10 Q1015 RMK FEW080 SCT180=

EUROPEAN AIRPORTS CODES

LFPO 080400Z 23005KT 1600 0800 R02/1700D R25/1500U R07/1800NR24/P2000 R06/P2000 BCFG BKN002 BKN046 02/01 Q1013 TEMPO 0600 FGVV///=